sensor_id;sensor_type;location;lat;lon;timestamp;P1;durP1;ratioP1;P2;durP2;ratioP2
20880;SDS011;10600;53.096;8.802;2023-04-15T00:00:51;23.63;;;15.18;;
20880;SDS011;10600;53.096;8.802;2023-04-15T00:01:52;23.05;;;15.20;;
20880;SDS011;10600;53.096;8.802;2023-04-15T00:02:53;22.50;;;14.73;;
20880;SDS011;10600;53.096;8.802;2023-04-15T00:03:54;20.52;;;13.82;;
20880;SDS011;10600;53.096;8.802;2023-04-15T00:04:55;22.35;;;14.52;;
20880;SDS011;10600;53.096;8.802;2023-04-15T00:05:56;22.50;;;13.35;;
20880;SDS011;10600;53.096;8.802;2023-04-15T00:06:57;24.23;;;14.80;;
20880;SDS011;10600;53.096;8.802;2023-04-15T00:07:58;23.63;;;14.63;;
20880;SDS011;10600;53.096;8.802;2023-04-15T00:08:59;23.48;;;15.43;;
20880;SDS011;10600;53.096;8.802;2023-04-15T00:09:59;25.65;;;15.30;;
20880;SDS011;10600;53.096;8.802;2023-04-15T00:11:01;21.33;;;13.45;;
20880;SDS011;10600;53.096;8.802;2023-04-15T00:12:04;21.23;;;14.02;;
20880;SDS011;10600;53.096;8.802;2023-04-15T00:13:05;22.33;;;14.45;;
20880;SDS011;10600;53.096;8.802;2023-04-15T00:14:05;23.58;;;14.05;;
20880;SDS011;10600;53.096;8.802;2023-04-15T00:15:07;23.75;;;14.52;;
20880;SDS011;10600;53.096;8.802;2023-04-15T00:16:08;25.70;;;15.05;;
20880;SDS011;10600;53.096;8.802;2023-04-15T00:17:09;26.13;;;14.80;;
20880;SDS011;10600;53.096;8.802;2023-04-15T00:18:10;25.58;;;14.43;;
20880;SDS011;10600;53.096;8.802;2023-04-15T00:19:11;21.65;;;13.55;;
20880;SDS011;10600;53.096;8.802;2023-04-15T00:20:12;23.42;;;14.45;;
20880;SDS011;10600;53.096;8.802;2023-04-15T00:21:12;21.58;;;14.13;;
20880;SDS011;10600;53.096;8.802;2023-04-15T00:22:13;22.50;;;12.98;;
20880;SDS011;10600;53.096;8.802;2023-04-15T00:23:14;24.15;;;13.73;;
20880;SDS011;10600;53.096;8.802;2023-04-15T00:24:14;22.95;;;13.23;;
20880;SDS011;10600;53.096;8.802;2023-04-15T00:25:15;19.60;;;13.25;;
20880;SDS011;10600;53.096;8.802;2023-04-15T00:26:16;21.83;;;13.50;;
20880;SDS011;10600;53.096;8.802;2023-04-15T00:27:18;23.05;;;13.32;;
20880;SDS011;10600;53.096;8.802;2023-04-15T00:28:19;22.08;;;13.63;;
20880;SDS011;10600;53.096;8.802;2023-04-15T00:29:20;23.25;;;13.85;;
20880;SDS011;10600;53.096;8.802;2023-04-15T00:30:20;21.77;;;13.57;;
20880;SDS011;10600;53.096;8.802;2023-04-15T00:31:21;19.00;;;12.50;;
20880;SDS011;10600;53.096;8.802;2023-04-15T00:32:22;21.73;;;14.00;;
20880;SDS011;10600;53.096;8.802;2023-04-15T00:33:22;19.10;;;12.52;;
20880;SDS011;10600;53.096;8.802;2023-04-15T00:34:23;22.40;;;13.10;;
20880;SDS011;10600;53.096;8.802;2023-04-15T00:35:24;19.38;;;12.48;;
20880;SDS011;10600;53.096;8.802;2023-04-15T00:36:24;19.77;;;11.73;;
20880;SDS011;10600;53.096;8.802;2023-04-15T00:37:25;23.58;;;13.73;;
20880;SDS011;10600;53.096;8.802;2023-04-15T00:38:26;23.48;;;13.45;;
20880;SDS011;10600;53.096;8.802;2023-04-15T00:39:27;22.45;;;14.18;;
20880;SDS011;10600;53.096;8.802;2023-04-15T00:40:27;22.98;;;14.25;;
20880;SDS011;10600;53.096;8.802;2023-04-15T00:41:28;20.70;;;13.38;;
20880;SDS011;10600;53.096;8.802;2023-04-15T00:42:29;21.88;;;14.05;;
20880;SDS011;10600;53.096;8.802;2023-04-15T00:43:30;18.42;;;12.57;;
20880;SDS011;10600;53.096;8.802;2023-04-15T00:44:30;21.02;;;12.80;;
20880;SDS011;10600;53.096;8.802;2023-04-15T00:45:32;22.20;;;13.20;;
20880;SDS011;10600;53.096;8.802;2023-04-15T00:46:34;21.40;;;12.25;;
20880;SDS011;10600;53.096;8.802;2023-04-15T00:47:40;19.25;;;12.20;;
20880;SDS011;10600;53.096;8.802;2023-04-15T00:48:41;22.17;;;12.98;;
20880;SDS011;10600;53.096;8.802;2023-04-15T00:49:43;23.67;;;14.15;;
20880;SDS011;10600;53.096;8.802;2023-04-15T00:50:43;22.63;;;14.55;;
20880;SDS011;10600;53.096;8.802;2023-04-15T00:51:44;24.42;;;14.88;;
20880;SDS011;10600;53.096;8.802;2023-04-15T00:52:45;22.63;;;14.02;;
20880;SDS011;10600;53.096;8.802;2023-04-15T00:53:45;20.55;;;13.15;;
20880;SDS011;10600;53.096;8.802;2023-04-15T00:54:46;21.48;;;13.95;;
20880;SDS011;10600;53.096;8.802;2023-04-15T00:55:47;22.10;;;13.80;;
20880;SDS011;10600;53.096;8.802;2023-04-15T00:56:48;22.67;;;14.50;;
20880;SDS011;10600;53.096;8.802;2023-04-15T00:57:49;25.67;;;15.00;;
20880;SDS011;10600;53.096;8.802;2023-04-15T00:58:50;23.20;;;14.43;;
20880;SDS011;10600;53.096;8.802;2023-04-15T00:59:51;24.35;;;14.52;;
20880;SDS011;10600;53.096;8.802;2023-04-15T01:00:53;20.90;;;13.77;;
20880;SDS011;10600;53.096;8.802;2023-04-15T01:01:54;25.90;;;15.35;;
20880;SDS011;10600;53.096;8.802;2023-04-15T01:02:55;21.98;;;13.98;;
20880;SDS011;10600;53.096;8.802;2023-04-15T01:03:56;24.00;;;14.30;;
20880;SDS011;10600;53.096;8.802;2023-04-15T01:04:57;23.40;;;14.32;;
20880;SDS011;10600;53.096;8.802;2023-04-15T01:05:58;23.52;;;14.65;;
20880;SDS011;10600;53.096;8.802;2023-04-15T01:06:59;22.67;;;14.77;;
20880;SDS011;10600;53.096;8.802;2023-04-15T01:08:01;23.40;;;14.20;;
20880;SDS011;10600;53.096;8.802;2023-04-15T01:09:02;25.48;;;15.00;;
20880;SDS011;10600;53.096;8.802;2023-04-15T01:10:03;21.70;;;14.52;;
20880;SDS011;10600;53.096;8.802;2023-04-15T01:11:04;24.80;;;14.98;;
20880;SDS011;10600;53.096;8.802;2023-04-15T01:12:05;23.85;;;14.88;;
20880;SDS011;10600;53.096;8.802;2023-04-15T01:13:07;25.52;;;14.93;;
20880;SDS011;10600;53.096;8.802;2023-04-15T01:14:08;25.00;;;14.60;;
20880;SDS011;10600;53.096;8.802;2023-04-15T01:15:09;25.80;;;15.38;;
20880;SDS011;10600;53.096;8.802;2023-04-15T01:16:10;29.48;;;16.17;;
20880;SDS011;10600;53.096;8.802;2023-04-15T01:17:12;24.63;;;15.35;;
20880;SDS011;10600;53.096;8.802;2023-04-15T01:18:12;26.60;;;15.80;;
20880;SDS011;10600;53.096;8.802;2023-04-15T01:19:13;26.17;;;15.35;;
20880;SDS011;10600;53.096;8.802;2023-04-15T01:20:16;26.70;;;15.35;;
20880;SDS011;10600;53.096;8.802;2023-04-15T01:21:17;25.42;;;15.70;;
20880;SDS011;10600;53.096;8.802;2023-04-15T01:22:18;24.85;;;15.85;;
20880;SDS011;10600;53.096;8.802;2023-04-15T01:23:20;27.98;;;15.98;;
20880;SDS011;10600;53.096;8.802;2023-04-15T01:24:22;26.38;;;16.00;;
20880;SDS011;10600;53.096;8.802;2023-04-15T01:25:31;25.27;;;15.95;;
20880;SDS011;10600;53.096;8.802;2023-04-15T01:26:33;26.90;;;16.48;;
20880;SDS011;10600;53.096;8.802;2023-04-15T01:27:34;28.17;;;16.95;;
20880;SDS011;10600;53.096;8.802;2023-04-15T01:28:37;27.35;;;16.08;;
20880;SDS011;10600;53.096;8.802;2023-04-15T01:29:38;25.58;;;15.95;;
20880;SDS011;10600;53.096;8.802;2023-04-15T01:30:39;26.02;;;16.45;;
20880;SDS011;10600;53.096;8.802;2023-04-15T01:31:39;24.17;;;15.52;;
20880;SDS011;10600;53.096;8.802;2023-04-15T01:32:40;27.50;;;16.20;;
20880;SDS011;10600;53.096;8.802;2023-04-15T01:33:41;29.00;;;16.67;;
20880;SDS011;10600;53.096;8.802;2023-04-15T01:34:42;24.83;;;16.05;;
20880;SDS011;10600;53.096;8.802;2023-04-15T01:35:43;30.27;;;17.38;;
20880;SDS011;10600;53.096;8.802;2023-04-15T01:36:43;26.98;;;16.35;;
20880;SDS011;10600;53.096;8.802;2023-04-15T01:37:45;27.02;;;16.58;;
20880;SDS011;10600;53.096;8.802;2023-04-15T01:38:46;29.15;;;16.73;;
20880;SDS011;10600;53.096;8.802;2023-04-15T01:39:47;31.60;;;17.83;;
20880;SDS011;10600;53.096;8.802;2023-04-15T01:40:48;32.90;;;18.23;;
20880;SDS011;10600;53.096;8.802;2023-04-15T01:41:48;27.98;;;16.58;;
20880;SDS011;10600;53.096;8.802;2023-04-15T01:42:49;30.85;;;17.55;;
20880;SDS011;10600;53.096;8.802;2023-04-15T01:43:49;29.20;;;17.08;;
20880;SDS011;10600;53.096;8.802;2023-04-15T01:44:51;30.83;;;17.15;;
20880;SDS011;10600;53.096;8.802;2023-04-15T01:45:52;25.73;;;17.35;;
20880;SDS011;10600;53.096;8.802;2023-04-15T01:46:53;30.05;;;16.15;;
20880;SDS011;10600;53.096;8.802;2023-04-15T01:47:54;28.58;;;17.88;;
20880;SDS011;10600;53.096;8.802;2023-04-15T01:48:54;27.73;;;16.77;;
20880;SDS011;10600;53.096;8.802;2023-04-15T01:49:55;30.02;;;17.83;;
20880;SDS011;10600;53.096;8.802;2023-04-15T01:50:56;28.63;;;17.65;;
20880;SDS011;10600;53.096;8.802;2023-04-15T01:52:00;30.38;;;17.70;;
20880;SDS011;10600;53.096;8.802;2023-04-15T01:53:00;29.90;;;17.05;;
20880;SDS011;10600;53.096;8.802;2023-04-15T01:54:01;26.88;;;17.08;;
20880;SDS011;10600;53.096;8.802;2023-04-15T01:55:02;26.10;;;16.42;;
20880;SDS011;10600;53.096;8.802;2023-04-15T01:56:03;26.63;;;15.10;;
20880;SDS011;10600;53.096;8.802;2023-04-15T01:57:04;26.45;;;16.45;;
20880;SDS011;10600;53.096;8.802;2023-04-15T01:58:04;25.63;;;15.73;;
20880;SDS011;10600;53.096;8.802;2023-04-15T01:59:05;27.45;;;15.65;;
20880;SDS011;10600;53.096;8.802;2023-04-15T02:00:06;26.35;;;16.38;;
20880;SDS011;10600;53.096;8.802;2023-04-15T02:01:07;26.40;;;16.10;;
20880;SDS011;10600;53.096;8.802;2023-04-15T02:02:09;29.88;;;16.27;;
20880;SDS011;10600;53.096;8.802;2023-04-15T02:03:10;26.17;;;15.82;;
20880;SDS011;10600;53.096;8.802;2023-04-15T02:04:11;27.27;;;16.48;;
20880;SDS011;10600;53.096;8.802;2023-04-15T02:05:15;29.92;;;17.33;;
20880;SDS011;10600;53.096;8.802;2023-04-15T02:06:16;26.40;;;15.52;;
20880;SDS011;10600;53.096;8.802;2023-04-15T02:07:17;28.88;;;16.67;;
20880;SDS011;10600;53.096;8.802;2023-04-15T02:08:18;24.95;;;15.93;;
20880;SDS011;10600;53.096;8.802;2023-04-15T02:09:19;27.25;;;15.60;;
20880;SDS011;10600;53.096;8.802;2023-04-15T02:10:19;25.42;;;16.08;;
20880;SDS011;10600;53.096;8.802;2023-04-15T02:11:20;24.35;;;14.88;;
20880;SDS011;10600;53.096;8.802;2023-04-15T02:12:22;24.83;;;16.15;;
20880;SDS011;10600;53.096;8.802;2023-04-15T02:13:22;26.85;;;16.30;;
20880;SDS011;10600;53.096;8.802;2023-04-15T02:14:23;29.10;;;16.42;;
20880;SDS011;10600;53.096;8.802;2023-04-15T02:15:23;26.33;;;16.70;;
20880;SDS011;10600;53.096;8.802;2023-04-15T02:16:24;28.30;;;16.25;;
20880;SDS011;10600;53.096;8.802;2023-04-15T02:17:25;26.95;;;15.55;;
20880;SDS011;10600;53.096;8.802;2023-04-15T02:18:26;24.95;;;16.30;;
20880;SDS011;10600;53.096;8.802;2023-04-15T02:19:26;25.70;;;16.73;;
20880;SDS011;10600;53.096;8.802;2023-04-15T02:20:27;25.85;;;15.90;;
20880;SDS011;10600;53.096;8.802;2023-04-15T02:21:29;29.02;;;16.00;;
20880;SDS011;10600;53.096;8.802;2023-04-15T02:22:30;25.02;;;15.27;;
20880;SDS011;10600;53.096;8.802;2023-04-15T02:23:31;25.30;;;15.70;;
20880;SDS011;10600;53.096;8.802;2023-04-15T02:24:31;26.05;;;16.33;;
20880;SDS011;10600;53.096;8.802;2023-04-15T02:25:33;27.27;;;15.90;;
20880;SDS011;10600;53.096;8.802;2023-04-15T02:26:34;26.70;;;15.95;;
20880;SDS011;10600;53.096;8.802;2023-04-15T02:27:35;25.80;;;15.00;;
20880;SDS011;10600;53.096;8.802;2023-04-15T02:28:36;25.40;;;15.20;;
20880;SDS011;10600;53.096;8.802;2023-04-15T02:29:36;25.15;;;15.60;;
20880;SDS011;10600;53.096;8.802;2023-04-15T02:30:37;26.65;;;16.42;;
20880;SDS011;10600;53.096;8.802;2023-04-15T02:31:39;25.13;;;15.93;;
20880;SDS011;10600;53.096;8.802;2023-04-15T02:32:41;27.45;;;16.05;;
20880;SDS011;10600;53.096;8.802;2023-04-15T02:33:44;27.90;;;17.48;;
20880;SDS011;10600;53.096;8.802;2023-04-15T02:34:44;26.27;;;16.85;;
20880;SDS011;10600;53.096;8.802;2023-04-15T02:35:45;26.85;;;16.40;;
20880;SDS011;10600;53.096;8.802;2023-04-15T02:36:46;27.67;;;15.85;;
20880;SDS011;10600;53.096;8.802;2023-04-15T02:37:48;27.17;;;16.52;;
20880;SDS011;10600;53.096;8.802;2023-04-15T02:38:49;29.63;;;17.23;;
20880;SDS011;10600;53.096;8.802;2023-04-15T02:39:49;26.52;;;16.90;;
20880;SDS011;10600;53.096;8.802;2023-04-15T02:40:50;27.63;;;15.95;;
20880;SDS011;10600;53.096;8.802;2023-04-15T02:41:51;32.35;;;17.08;;
20880;SDS011;10600;53.096;8.802;2023-04-15T02:42:51;27.90;;;15.32;;
20880;SDS011;10600;53.096;8.802;2023-04-15T02:43:52;26.58;;;16.17;;
20880;SDS011;10600;53.096;8.802;2023-04-15T02:44:53;27.15;;;16.92;;
20880;SDS011;10600;53.096;8.802;2023-04-15T02:45:54;28.67;;;17.33;;
20880;SDS011;10600;53.096;8.802;2023-04-15T02:46:54;25.70;;;15.20;;
20880;SDS011;10600;53.096;8.802;2023-04-15T02:47:55;29.00;;;16.40;;
20880;SDS011;10600;53.096;8.802;2023-04-15T02:48:56;24.75;;;16.42;;
20880;SDS011;10600;53.096;8.802;2023-04-15T02:49:58;29.40;;;17.23;;
20880;SDS011;10600;53.096;8.802;2023-04-15T02:51:19;27.52;;;16.83;;
20880;SDS011;10600;53.096;8.802;2023-04-15T02:52:21;26.70;;;16.80;;
20880;SDS011;10600;53.096;8.802;2023-04-15T02:53:23;28.92;;;17.48;;
20880;SDS011;10600;53.096;8.802;2023-04-15T02:54:25;27.38;;;16.80;;
20880;SDS011;10600;53.096;8.802;2023-04-15T02:55:27;28.77;;;16.48;;
20880;SDS011;10600;53.096;8.802;2023-04-15T02:56:28;27.80;;;16.05;;
20880;SDS011;10600;53.096;8.802;2023-04-15T02:57:29;25.38;;;16.35;;
20880;SDS011;10600;53.096;8.802;2023-04-15T02:58:30;27.85;;;17.27;;
20880;SDS011;10600;53.096;8.802;2023-04-15T02:59:31;29.98;;;15.40;;
20880;SDS011;10600;53.096;8.802;2023-04-15T03:00:31;29.02;;;17.83;;
20880;SDS011;10600;53.096;8.802;2023-04-15T03:01:32;29.02;;;17.05;;
20880;SDS011;10600;53.096;8.802;2023-04-15T03:02:33;28.13;;;17.88;;
20880;SDS011;10600;53.096;8.802;2023-04-15T03:03:35;28.15;;;17.35;;
20880;SDS011;10600;53.096;8.802;2023-04-15T03:04:35;27.48;;;16.45;;
20880;SDS011;10600;53.096;8.802;2023-04-15T03:05:36;25.35;;;14.82;;
20880;SDS011;10600;53.096;8.802;2023-04-15T03:06:38;28.73;;;16.75;;
20880;SDS011;10600;53.096;8.802;2023-04-15T03:07:38;30.58;;;18.63;;
20880;SDS011;10600;53.096;8.802;2023-04-15T03:08:39;26.98;;;17.55;;
20880;SDS011;10600;53.096;8.802;2023-04-15T03:09:40;26.42;;;16.15;;
20880;SDS011;10600;53.096;8.802;2023-04-15T03:10:41;29.13;;;18.48;;
20880;SDS011;10600;53.096;8.802;2023-04-15T03:11:42;26.10;;;15.60;;
20880;SDS011;10600;53.096;8.802;2023-04-15T03:12:43;29.83;;;17.85;;
20880;SDS011;10600;53.096;8.802;2023-04-15T03:13:43;30.23;;;16.63;;
20880;SDS011;10600;53.096;8.802;2023-04-15T03:14:44;28.33;;;17.27;;
20880;SDS011;10600;53.096;8.802;2023-04-15T03:15:45;29.80;;;18.45;;
20880;SDS011;10600;53.096;8.802;2023-04-15T03:16:47;28.15;;;17.35;;
20880;SDS011;10600;53.096;8.802;2023-04-15T03:17:49;29.20;;;17.17;;
20880;SDS011;10600;53.096;8.802;2023-04-15T03:18:50;28.55;;;17.67;;
20880;SDS011;10600;53.096;8.802;2023-04-15T03:19:50;31.55;;;17.70;;
20880;SDS011;10600;53.096;8.802;2023-04-15T03:20:51;28.30;;;18.15;;
20880;SDS011;10600;53.096;8.802;2023-04-15T03:21:52;30.83;;;18.15;;
20880;SDS011;10600;53.096;8.802;2023-04-15T03:22:52;30.67;;;17.58;;
20880;SDS011;10600;53.096;8.802;2023-04-15T03:23:53;28.73;;;17.48;;
20880;SDS011;10600;53.096;8.802;2023-04-15T03:24:54;29.60;;;17.40;;
20880;SDS011;10600;53.096;8.802;2023-04-15T03:25:55;29.10;;;17.75;;
20880;SDS011;10600;53.096;8.802;2023-04-15T03:26:57;28.23;;;18.27;;
20880;SDS011;10600;53.096;8.802;2023-04-15T03:27:58;29.13;;;17.95;;
20880;SDS011;10600;53.096;8.802;2023-04-15T03:28:59;30.67;;;17.48;;
20880;SDS011;10600;53.096;8.802;2023-04-15T03:30:00;29.40;;;16.83;;
20880;SDS011;10600;53.096;8.802;2023-04-15T03:31:00;30.10;;;16.35;;
20880;SDS011;10600;53.096;8.802;2023-04-15T03:32:01;30.45;;;17.45;;
20880;SDS011;10600;53.096;8.802;2023-04-15T03:33:02;28.63;;;16.65;;
20880;SDS011;10600;53.096;8.802;2023-04-15T03:34:02;29.65;;;17.70;;
20880;SDS011;10600;53.096;8.802;2023-04-15T03:35:03;28.23;;;16.95;;
20880;SDS011;10600;53.096;8.802;2023-04-15T03:36:04;25.65;;;14.13;;
20880;SDS011;10600;53.096;8.802;2023-04-15T03:37:05;29.60;;;17.52;;
20880;SDS011;10600;53.096;8.802;2023-04-15T03:38:06;24.40;;;15.63;;
20880;SDS011;10600;53.096;8.802;2023-04-15T03:39:07;28.35;;;15.95;;
20880;SDS011;10600;53.096;8.802;2023-04-15T03:40:07;30.90;;;17.98;;
20880;SDS011;10600;53.096;8.802;2023-04-15T03:41:08;27.45;;;16.98;;
20880;SDS011;10600;53.096;8.802;2023-04-15T03:42:09;24.50;;;15.18;;
20880;SDS011;10600;53.096;8.802;2023-04-15T03:43:10;31.33;;;17.25;;
20880;SDS011;10600;53.096;8.802;2023-04-15T03:44:11;26.50;;;16.92;;
20880;SDS011;10600;53.096;8.802;2023-04-15T03:45:11;30.27;;;16.83;;
20880;SDS011;10600;53.096;8.802;2023-04-15T03:46:12;29.98;;;16.75;;
20880;SDS011;10600;53.096;8.802;2023-04-15T03:47:13;26.88;;;16.30;;
20880;SDS011;10600;53.096;8.802;2023-04-15T03:48:13;25.98;;;16.08;;
20880;SDS011;10600;53.096;8.802;2023-04-15T03:49:14;29.45;;;16.77;;
20880;SDS011;10600;53.096;8.802;2023-04-15T03:50:15;25.83;;;16.52;;
20880;SDS011;10600;53.096;8.802;2023-04-15T03:51:16;26.83;;;15.40;;
20880;SDS011;10600;53.096;8.802;2023-04-15T03:52:16;28.65;;;16.33;;
20880;SDS011;10600;53.096;8.802;2023-04-15T03:53:17;24.45;;;13.95;;
20880;SDS011;10600;53.096;8.802;2023-04-15T03:54:18;27.75;;;15.90;;
20880;SDS011;10600;53.096;8.802;2023-04-15T03:55:18;26.05;;;15.77;;
20880;SDS011;10600;53.096;8.802;2023-04-15T03:56:19;31.52;;;17.70;;
20880;SDS011;10600;53.096;8.802;2023-04-15T03:57:20;25.15;;;15.30;;
20880;SDS011;10600;53.096;8.802;2023-04-15T03:58:21;26.80;;;14.73;;
20880;SDS011;10600;53.096;8.802;2023-04-15T03:59:21;27.88;;;16.77;;
20880;SDS011;10600;53.096;8.802;2023-04-15T04:00:22;30.67;;;16.85;;
20880;SDS011;10600;53.096;8.802;2023-04-15T04:01:22;29.30;;;16.45;;
20880;SDS011;10600;53.096;8.802;2023-04-15T04:02:23;31.17;;;17.23;;
20880;SDS011;10600;53.096;8.802;2023-04-15T04:03:24;28.42;;;16.05;;
20880;SDS011;10600;53.096;8.802;2023-04-15T04:04:24;30.98;;;17.17;;
20880;SDS011;10600;53.096;8.802;2023-04-15T04:05:25;29.60;;;18.05;;
20880;SDS011;10600;53.096;8.802;2023-04-15T04:06:26;29.20;;;18.00;;
20880;SDS011;10600;53.096;8.802;2023-04-15T04:07:26;26.50;;;16.38;;
20880;SDS011;10600;53.096;8.802;2023-04-15T04:08:27;31.98;;;17.88;;
20880;SDS011;10600;53.096;8.802;2023-04-15T04:09:27;30.60;;;17.35;;
20880;SDS011;10600;53.096;8.802;2023-04-15T04:10:28;28.65;;;16.67;;
20880;SDS011;10600;53.096;8.802;2023-04-15T04:11:29;31.42;;;18.30;;
20880;SDS011;10600;53.096;8.802;2023-04-15T04:12:29;31.73;;;17.80;;
20880;SDS011;10600;53.096;8.802;2023-04-15T04:13:30;32.75;;;19.05;;
20880;SDS011;10600;53.096;8.802;2023-04-15T04:14:31;37.00;;;20.77;;
20880;SDS011;10600;53.096;8.802;2023-04-15T04:15:31;37.42;;;19.63;;
20880;SDS011;10600;53.096;8.802;2023-04-15T04:16:32;37.63;;;19.77;;
20880;SDS011;10600;53.096;8.802;2023-04-15T04:17:33;33.58;;;19.85;;
20880;SDS011;10600;53.096;8.802;2023-04-15T04:18:33;26.70;;;15.20;;
20880;SDS011;10600;53.096;8.802;2023-04-15T04:19:34;38.90;;;21.38;;
20880;SDS011;10600;53.096;8.802;2023-04-15T04:20:35;30.70;;;18.33;;
20880;SDS011;10600;53.096;8.802;2023-04-15T04:21:35;35.53;;;19.75;;
20880;SDS011;10600;53.096;8.802;2023-04-15T04:22:37;33.28;;;17.75;;
20880;SDS011;10600;53.096;8.802;2023-04-15T04:23:38;38.47;;;21.52;;
20880;SDS011;10600;53.096;8.802;2023-04-15T04:24:39;34.45;;;19.20;;
20880;SDS011;10600;53.096;8.802;2023-04-15T04:25:40;35.70;;;20.65;;
20880;SDS011;10600;53.096;8.802;2023-04-15T04:26:41;37.63;;;20.55;;
20880;SDS011;10600;53.096;8.802;2023-04-15T04:27:41;36.55;;;21.42;;
20880;SDS011;10600;53.096;8.802;2023-04-15T04:28:42;37.40;;;20.10;;
20880;SDS011;10600;53.096;8.802;2023-04-15T04:29:43;38.75;;;20.05;;
20880;SDS011;10600;53.096;8.802;2023-04-15T04:30:43;35.90;;;20.35;;
20880;SDS011;10600;53.096;8.802;2023-04-15T04:31:44;40.90;;;21.45;;
20880;SDS011;10600;53.096;8.802;2023-04-15T04:32:45;35.42;;;21.75;;
20880;SDS011;10600;53.096;8.802;2023-04-15T04:33:46;38.92;;;21.40;;
20880;SDS011;10600;53.096;8.802;2023-04-15T04:34:47;38.67;;;20.30;;
20880;SDS011;10600;53.096;8.802;2023-04-15T04:35:47;41.08;;;21.88;;
20880;SDS011;10600;53.096;8.802;2023-04-15T04:36:48;38.35;;;20.77;;
20880;SDS011;10600;53.096;8.802;2023-04-15T04:37:48;36.00;;;20.60;;
20880;SDS011;10600;53.096;8.802;2023-04-15T04:38:49;40.42;;;21.75;;
20880;SDS011;10600;53.096;8.802;2023-04-15T04:39:50;40.70;;;20.27;;
20880;SDS011;10600;53.096;8.802;2023-04-15T04:40:51;40.25;;;20.90;;
20880;SDS011;10600;53.096;8.802;2023-04-15T04:41:51;44.65;;;24.52;;
20880;SDS011;10600;53.096;8.802;2023-04-15T04:42:52;41.13;;;21.58;;
20880;SDS011;10600;53.096;8.802;2023-04-15T04:43:53;41.83;;;22.10;;
20880;SDS011;10600;53.096;8.802;2023-04-15T04:44:53;42.03;;;23.13;;
20880;SDS011;10600;53.096;8.802;2023-04-15T04:45:54;44.55;;;24.15;;
20880;SDS011;10600;53.096;8.802;2023-04-15T04:46:55;37.65;;;20.52;;
20880;SDS011;10600;53.096;8.802;2023-04-15T04:47:56;43.10;;;23.65;;
20880;SDS011;10600;53.096;8.802;2023-04-15T04:48:56;45.90;;;23.33;;
20880;SDS011;10600;53.096;8.802;2023-04-15T04:49:57;37.17;;;20.05;;
20880;SDS011;10600;53.096;8.802;2023-04-15T04:50:57;45.28;;;23.58;;
20880;SDS011;10600;53.096;8.802;2023-04-15T04:51:58;42.35;;;22.55;;
20880;SDS011;10600;53.096;8.802;2023-04-15T04:52:59;45.13;;;23.92;;
20880;SDS011;10600;53.096;8.802;2023-04-15T04:54:00;44.50;;;24.92;;
20880;SDS011;10600;53.096;8.802;2023-04-15T04:55:01;35.85;;;19.92;;
20880;SDS011;10600;53.096;8.802;2023-04-15T04:56:02;46.45;;;25.38;;
20880;SDS011;10600;53.096;8.802;2023-04-15T04:57:03;42.03;;;22.98;;
20880;SDS011;10600;53.096;8.802;2023-04-15T04:58:04;46.25;;;24.20;;
20880;SDS011;10600;53.096;8.802;2023-04-15T04:59:04;39.85;;;20.50;;
20880;SDS011;10600;53.096;8.802;2023-04-15T05:00:06;46.90;;;26.02;;
20880;SDS011;10600;53.096;8.802;2023-04-15T05:01:07;43.05;;;23.85;;
20880;SDS011;10600;53.096;8.802;2023-04-15T05:02:09;46.88;;;23.80;;
20880;SDS011;10600;53.096;8.802;2023-04-15T05:03:09;41.13;;;22.85;;
20880;SDS011;10600;53.096;8.802;2023-04-15T05:04:10;44.90;;;23.63;;
20880;SDS011;10600;53.096;8.802;2023-04-15T05:05:11;42.80;;;23.55;;
20880;SDS011;10600;53.096;8.802;2023-04-15T05:06:12;45.97;;;25.05;;
20880;SDS011;10600;53.096;8.802;2023-04-15T05:07:12;46.53;;;24.80;;
20880;SDS011;10600;53.096;8.802;2023-04-15T05:08:13;47.70;;;26.45;;
20880;SDS011;10600;53.096;8.802;2023-04-15T05:09:15;49.33;;;25.27;;
20880;SDS011;10600;53.096;8.802;2023-04-15T05:10:15;44.05;;;23.58;;
20880;SDS011;10600;53.096;8.802;2023-04-15T05:11:17;54.25;;;27.35;;
20880;SDS011;10600;53.096;8.802;2023-04-15T05:12:17;42.97;;;20.45;;
20880;SDS011;10600;53.096;8.802;2023-04-15T05:13:18;49.47;;;25.63;;
20880;SDS011;10600;53.096;8.802;2023-04-15T05:14:20;44.38;;;25.63;;
20880;SDS011;10600;53.096;8.802;2023-04-15T05:15:21;50.00;;;25.60;;
20880;SDS011;10600;53.096;8.802;2023-04-15T05:16:21;47.88;;;24.02;;
20880;SDS011;10600;53.096;8.802;2023-04-15T05:17:22;48.55;;;26.17;;
20880;SDS011;10600;53.096;8.802;2023-04-15T05:18:23;52.53;;;26.63;;
20880;SDS011;10600;53.096;8.802;2023-04-15T05:19:23;50.25;;;25.17;;
20880;SDS011;10600;53.096;8.802;2023-04-15T05:20:24;51.95;;;26.63;;
20880;SDS011;10600;53.096;8.802;2023-04-15T05:21:25;52.17;;;25.83;;
20880;SDS011;10600;53.096;8.802;2023-04-15T05:22:26;50.10;;;24.63;;
20880;SDS011;10600;53.096;8.802;2023-04-15T05:23:27;50.92;;;24.30;;
20880;SDS011;10600;53.096;8.802;2023-04-15T05:24:27;51.97;;;27.75;;
20880;SDS011;10600;53.096;8.802;2023-04-15T05:25:28;46.05;;;25.38;;
20880;SDS011;10600;53.096;8.802;2023-04-15T05:26:29;50.17;;;24.85;;
20880;SDS011;10600;53.096;8.802;2023-04-15T05:27:30;52.83;;;27.10;;
20880;SDS011;10600;53.096;8.802;2023-04-15T05:28:31;51.50;;;28.10;;
20880;SDS011;10600;53.096;8.802;2023-04-15T05:29:31;53.25;;;24.63;;
20880;SDS011;10600;53.096;8.802;2023-04-15T05:30:32;49.78;;;26.13;;
20880;SDS011;10600;53.096;8.802;2023-04-15T05:31:33;49.70;;;25.88;;
20880;SDS011;10600;53.096;8.802;2023-04-15T05:32:33;48.95;;;23.90;;
20880;SDS011;10600;53.096;8.802;2023-04-15T05:33:34;48.50;;;24.77;;
20880;SDS011;10600;53.096;8.802;2023-04-15T05:34:35;47.00;;;23.17;;
20880;SDS011;10600;53.096;8.802;2023-04-15T05:35:36;43.47;;;22.70;;
20880;SDS011;10600;53.096;8.802;2023-04-15T05:36:37;47.88;;;24.05;;
20880;SDS011;10600;53.096;8.802;2023-04-15T05:37:37;49.10;;;25.38;;
20880;SDS011;10600;53.096;8.802;2023-04-15T05:38:38;42.08;;;22.25;;
20880;SDS011;10600;53.096;8.802;2023-04-15T05:39:38;49.88;;;25.48;;
20880;SDS011;10600;53.096;8.802;2023-04-15T05:40:39;52.75;;;26.40;;
20880;SDS011;10600;53.096;8.802;2023-04-15T05:41:40;47.90;;;23.48;;
20880;SDS011;10600;53.096;8.802;2023-04-15T05:42:40;48.90;;;25.73;;
20880;SDS011;10600;53.096;8.802;2023-04-15T05:43:41;53.75;;;26.63;;
20880;SDS011;10600;53.096;8.802;2023-04-15T05:44:42;52.63;;;25.45;;
20880;SDS011;10600;53.096;8.802;2023-04-15T05:45:42;51.33;;;25.90;;
20880;SDS011;10600;53.096;8.802;2023-04-15T05:46:43;55.47;;;26.35;;
20880;SDS011;10600;53.096;8.802;2023-04-15T05:47:44;47.88;;;25.63;;
20880;SDS011;10600;53.096;8.802;2023-04-15T05:48:44;49.38;;;24.98;;
20880;SDS011;10600;53.096;8.802;2023-04-15T05:49:45;56.40;;;27.60;;
20880;SDS011;10600;53.096;8.802;2023-04-15T05:50:46;53.95;;;26.58;;
20880;SDS011;10600;53.096;8.802;2023-04-15T05:51:47;59.38;;;26.98;;
20880;SDS011;10600;53.096;8.802;2023-04-15T05:52:47;52.08;;;27.83;;
20880;SDS011;10600;53.096;8.802;2023-04-15T05:53:48;52.05;;;25.52;;
20880;SDS011;10600;53.096;8.802;2023-04-15T05:54:48;51.97;;;26.48;;
20880;SDS011;10600;53.096;8.802;2023-04-15T05:55:49;54.20;;;26.17;;
20880;SDS011;10600;53.096;8.802;2023-04-15T05:56:50;54.28;;;25.88;;